createdAt,value
2018-11-05T00:05:40.685Z,4.43
2018-11-05T00:11:35.642Z,5
2018-11-05T00:17:30.705Z,3.37
2018-11-05T00:23:25.668Z,4.46
2018-11-05T00:29:20.690Z,4.36
2018-11-05T00:35:15.666Z,4.3
2018-11-05T00:41:10.656Z,4.38
2018-11-05T00:47:05.676Z,4.12
2018-11-05T00:53:00.690Z,3.82
2018-11-05T00:58:55.650Z,4.08
2018-11-05T01:04:50.688Z,3.43
2018-11-05T01:10:45.684Z,4.15
2018-11-05T01:16:40.695Z,3.85
2018-11-05T01:22:35.713Z,3.78
2018-11-05T01:28:30.722Z,3.89
2018-11-05T01:34:25.696Z,3.68
2018-11-05T01:40:20.701Z,3.32
2018-11-05T01:46:15.706Z,3
2018-11-05T01:52:10.734Z,3.6
2018-11-05T01:58:05.754Z,3.32
2018-11-05T02:04:00.723Z,3.07
2018-11-05T02:09:55.706Z,2.88
2018-11-05T02:15:50.757Z,3.7
2018-11-05T02:21:45.727Z,3.45
2018-11-05T02:27:40.716Z,2.66
2018-11-05T02:33:35.767Z,3.51
2018-11-05T02:39:30.736Z,3.61
2018-11-05T02:45:25.751Z,3.92
2018-11-05T02:51:20.759Z,3.91
2018-11-05T02:57:15.734Z,3.24
2018-11-05T03:03:10.872Z,2.72
2018-11-05T03:09:05.777Z,2.68
2018-11-05T03:15:00.819Z,3.47
2018-11-05T03:20:55.769Z,3.05
2018-11-05T03:26:50.783Z,3.29
2018-11-05T03:32:45.757Z,3.31
2018-11-05T03:38:40.829Z,3.23
2018-11-05T03:44:35.769Z,3.37
2018-11-05T03:50:30.822Z,2.98
2018-11-05T03:56:25.824Z,3.41
2018-11-05T04:02:20.797Z,3.26
2018-11-05T04:08:15.780Z,3
2018-11-05T04:14:10.821Z,2.69
2018-11-05T04:20:05.829Z,3.33
2018-11-05T04:26:00.796Z,3.16
2018-11-05T04:31:55.824Z,3.3
2018-11-05T04:37:50.811Z,3.07
2018-11-05T04:43:45.813Z,2.83
2018-11-05T04:49:40.807Z,3.23
2018-11-05T04:55:35.826Z,3.46
2018-11-05T05:01:30.831Z,3.91
2018-11-05T05:07:25.831Z,4.32
2018-11-05T05:13:20.834Z,4.08
2018-11-05T05:19:15.846Z,3.39
2018-11-05T05:25:10.839Z,3.55
2018-11-05T05:31:05.889Z,3.63
2018-11-05T05:37:00.866Z,3.68
2018-11-05T05:42:55.873Z,4.03
2018-11-05T05:48:50.850Z,4.22
2018-11-05T05:54:45.883Z,3.77
2018-11-05T06:00:40.874Z,3.96
2018-11-05T06:06:35.959Z,3.95
2018-11-05T06:12:30.856Z,3.64
2018-11-05T06:18:25.855Z,3.72
2018-11-05T06:24:20.926Z,3.46
2018-11-05T06:30:15.894Z,4.76
2018-11-05T06:36:10.899Z,5.08
2018-11-05T06:42:05.928Z,4.29
2018-11-05T06:48:00.878Z,4.24
2018-11-05T06:53:55.908Z,3.97
2018-11-05T06:59:50.891Z,4.41
2018-11-05T07:05:45.975Z,4.26
2018-11-05T07:11:40.940Z,3.5
2018-11-05T07:17:35.906Z,4.23
2018-11-05T07:23:30.917Z,4.16
2018-11-05T07:29:25.930Z,3.87
2018-11-05T07:35:20.912Z,3.85
2018-11-05T07:41:15.994Z,3.67
2018-11-05T07:47:10.941Z,3.13
2018-11-05T07:53:05.916Z,3.47
2018-11-05T07:59:00.926Z,3.39
2018-11-05T08:04:55.941Z,3.55
2018-11-05T08:10:50.935Z,4.2
2018-11-05T08:16:45.945Z,3.71
2018-11-05T08:22:40.944Z,3.79
2018-11-05T08:28:35.971Z,3.66
2018-11-05T08:34:30.965Z,3.05
2018-11-05T08:40:26.086Z,2.91
2018-11-05T08:46:20.959Z,2.61
2018-11-05T08:52:15.983Z,2.6
2018-11-05T08:58:10.992Z,2.29
2018-11-05T09:04:05.950Z,2.47
2018-11-05T09:10:01.114Z,2.18
2018-11-05T09:15:56.018Z,2.07
2018-11-05T09:21:51.022Z,2.34
2018-11-05T09:27:46.039Z,2.25
2018-11-05T09:33:41.012Z,2.15
2018-11-05T09:39:36.003Z,1.94
2018-11-05T09:45:31.016Z,1.96
2018-11-05T09:51:25.984Z,1.57
2018-11-05T09:57:21.255Z,1.43
2018-11-05T10:03:16.191Z,1.52
2018-11-05T10:09:11.006Z,1.33
2018-11-05T10:15:06.008Z,1.24
2018-11-05T10:21:01.052Z,1.4
2018-11-05T10:26:56.020Z,1.25
2018-11-05T10:32:51.086Z,1.4
2018-11-05T10:38:46.057Z,1.16
2018-11-05T10:44:41.076Z,1.33
2018-11-05T10:50:36.085Z,1.26
2018-11-05T10:56:31.038Z,1.4
2018-11-05T11:02:26.060Z,1.57
2018-11-05T11:08:21.066Z,1.14
2018-11-05T11:14:16.055Z,1.61
2018-11-05T11:20:11.077Z,1.28
2018-11-05T11:26:06.071Z,1.63
2018-11-05T11:32:01.069Z,1.38
2018-11-05T11:37:56.047Z,1.77
2018-11-05T11:43:51.077Z,1.47
2018-11-05T11:49:46.072Z,2.72
2018-11-05T11:55:41.083Z,1.23
2018-11-05T12:01:36.085Z,1.1
2018-11-05T12:07:31.072Z,1.35
2018-11-05T12:13:26.132Z,1.32
2018-11-05T12:19:21.125Z,0.99
2018-11-05T12:25:16.141Z,1.14
2018-11-05T12:31:11.100Z,1.17
2018-11-05T12:37:06.104Z,1.59
2018-11-05T12:43:01.106Z,1.34
2018-11-05T12:48:56.111Z,1.25
2018-11-05T12:54:51.132Z,1.1
2018-11-05T13:00:46.112Z,1.49
2018-11-05T13:06:41.182Z,1.28
2018-11-05T13:12:36.139Z,1.38
2018-11-05T13:18:31.185Z,1.33
2018-11-05T13:24:26.217Z,1.26
2018-11-05T13:30:21.134Z,0.97
2018-11-05T13:36:16.152Z,1
2018-11-05T13:42:11.160Z,1.04
2018-11-05T13:48:06.539Z,0.8
2018-11-05T13:54:01.184Z,0.94
2018-11-05T13:59:56.152Z,0.89
2018-11-05T14:05:51.289Z,0.96
2018-11-05T14:11:46.166Z,1.09
2018-11-05T14:17:41.178Z,1.23
2018-11-05T14:23:36.193Z,1.4
2018-11-05T14:29:31.737Z,1.3
2018-11-05T14:35:26.193Z,1.33
2018-11-05T14:41:21.187Z,1.26
2018-11-05T14:47:16.234Z,1.27
2018-11-05T14:53:11.226Z,1.02
2018-11-05T14:59:06.187Z,1.16
2018-11-05T15:05:01.177Z,0.94
2018-11-05T15:10:56.189Z,1.07
2018-11-05T15:16:51.195Z,1.03
2018-11-05T15:22:46.249Z,1.28
2018-11-05T15:28:41.219Z,1.2
2018-11-05T15:34:36.228Z,0.92
2018-11-05T15:40:31.246Z,1.1
2018-11-05T15:46:26.280Z,1.4
2018-11-05T15:52:21.632Z,1.17
2018-11-05T15:58:16.238Z,1.26
2018-11-05T16:04:11.264Z,0.98
2018-11-05T16:10:06.256Z,1.23
2018-11-05T16:16:01.285Z,1.11
2018-11-05T16:21:56.248Z,1.4
2018-11-05T16:27:51.252Z,1.65
2018-11-05T16:33:46.252Z,1.43
2018-11-05T16:39:41.377Z,1.3
2018-11-05T16:45:36.288Z,1.31
2018-11-05T16:51:31.260Z,1.29
2018-11-05T16:57:26.288Z,1.27
2018-11-05T17:03:21.324Z,1.46
2018-11-05T17:09:16.253Z,1.49
2018-11-05T17:15:11.264Z,1.33
2018-11-05T17:21:06.320Z,0.99
2018-11-05T17:27:01.333Z,1.18
2018-11-05T17:32:56.289Z,1.02
2018-11-05T17:38:51.302Z,1.3
2018-11-05T17:44:46.325Z,1.13
2018-11-05T17:50:41.380Z,1.17
2018-11-05T17:56:36.308Z,1.24
2018-11-05T18:02:31.316Z,1.23
2018-11-05T18:08:26.311Z,1.14
2018-11-05T18:14:21.323Z,0.95
2018-11-05T18:20:16.327Z,1.06
2018-11-05T18:26:11.337Z,1.23
2018-11-05T18:32:06.342Z,1.18
2018-11-05T18:38:01.364Z,1.93
2018-11-05T18:43:56.349Z,2.31
2018-11-05T18:49:51.361Z,1.93
2018-11-05T18:55:46.341Z,1.98
2018-11-05T19:01:41.312Z,2.55
2018-11-05T19:07:36.327Z,2.24
2018-11-05T19:13:31.389Z,2.31
2018-11-05T19:19:26.414Z,2.4
2018-11-05T19:25:21.402Z,2.48
2018-11-05T19:31:16.347Z,2.65
2018-11-05T19:37:11.452Z,2.93
2018-11-05T19:43:06.453Z,2.64
2018-11-05T19:49:01.378Z,3.32
2018-11-05T19:54:56.360Z,3.12
2018-11-05T20:00:51.449Z,2.09
2018-11-05T20:06:46.381Z,2.43
2018-11-05T20:12:41.405Z,2.91
2018-11-05T20:18:36.453Z,2.9
2018-11-05T20:24:31.404Z,3.01
2018-11-05T20:30:26.422Z,4.33
2018-11-05T20:36:21.390Z,2.76
2018-11-05T20:42:16.445Z,2.92
2018-11-05T20:48:11.424Z,2.68
2018-11-05T20:54:06.526Z,2.19
2018-11-05T21:00:01.411Z,2.01
2018-11-05T21:05:56.413Z,1.86
2018-11-05T21:11:51.443Z,2.19
2018-11-05T21:17:46.483Z,2
2018-11-05T21:23:41.434Z,2.46
2018-11-05T21:29:36.453Z,2.54
2018-11-05T21:35:31.434Z,2.43
2018-11-05T21:41:26.418Z,2.64
2018-11-05T21:47:21.480Z,2.94
2018-11-05T21:53:16.490Z,2.82
2018-11-05T21:59:11.442Z,2.87
2018-11-05T22:05:06.472Z,3.26
2018-11-05T22:11:01.465Z,3.25
2018-11-05T22:16:56.463Z,2.8
2018-11-05T22:22:51.485Z,3.05
2018-11-05T22:28:46.520Z,3.14
2018-11-05T22:34:41.490Z,3.01
2018-11-05T22:40:36.526Z,2.72
2018-11-05T22:46:31.484Z,3.28
2018-11-05T22:52:26.514Z,3.31
2018-11-05T22:58:21.522Z,2.87
2018-11-05T23:04:16.484Z,3.06
2018-11-05T23:10:11.503Z,3.09
2018-11-05T23:16:06.519Z,3.07
2018-11-05T23:22:01.535Z,2.37
2018-11-05T23:27:56.526Z,2.78
2018-11-05T23:33:51.548Z,3.42
2018-11-05T23:39:46.512Z,3.1
2018-11-05T23:45:41.529Z,3.02
2018-11-05T23:51:36.620Z,2.92
2018-11-05T23:57:31.541Z,3.02
